sensor_id;sensor_type;location;lat;lon;timestamp;temperature;humidity
43671;DHT22;29267;50.906;7.248;2024-01-15T00:01:33;0.50;99.90
43671;DHT22;29267;50.906;7.248;2024-01-15T00:04:00;0.60;99.90
43671;DHT22;29267;50.906;7.248;2024-01-15T00:06:25;0.60;99.90
43671;DHT22;29267;50.906;7.248;2024-01-15T00:08:52;0.60;99.90
43671;DHT22;29267;50.906;7.248;2024-01-15T00:11:18;0.60;99.90
43671;DHT22;29267;50.906;7.248;2024-01-15T00:13:43;0.70;99.90
43671;DHT22;29267;50.906;7.248;2024-01-15T00:16:09;0.70;99.90
43671;DHT22;29267;50.906;7.248;2024-01-15T00:18:35;0.70;99.90
43671;DHT22;29267;50.906;7.248;2024-01-15T00:21:01;0.70;99.90
43671;DHT22;29267;50.906;7.248;2024-01-15T00:23:27;0.70;99.90
43671;DHT22;29267;50.906;7.248;2024-01-15T00:25:52;0.70;99.90
43671;DHT22;29267;50.906;7.248;2024-01-15T00:28:18;0.70;99.90
43671;DHT22;29267;50.906;7.248;2024-01-15T00:30:44;0.70;99.90
43671;DHT22;29267;50.906;7.248;2024-01-15T00:33:09;0.70;99.90
43671;DHT22;29267;50.906;7.248;2024-01-15T00:35:37;0.70;99.90
43671;DHT22;29267;50.906;7.248;2024-01-15T00:38:03;0.60;99.90
43671;DHT22;29267;50.906;7.248;2024-01-15T00:40:29;0.60;99.90
43671;DHT22;29267;50.906;7.248;2024-01-15T00:42:54;0.60;99.90
43671;DHT22;29267;50.906;7.248;2024-01-15T00:45:20;0.60;99.90
43671;DHT22;29267;50.906;7.248;2024-01-15T00:47:46;0.60;99.90
43671;DHT22;29267;50.906;7.248;2024-01-15T00:50:11;0.50;99.90
43671;DHT22;29267;50.906;7.248;2024-01-15T00:52:37;0.60;99.90
43671;DHT22;29267;50.906;7.248;2024-01-15T00:55:03;0.50;99.90
43671;DHT22;29267;50.906;7.248;2024-01-15T00:57:28;0.50;99.90
43671;DHT22;29267;50.906;7.248;2024-01-15T00:59:54;0.50;99.90
43671;DHT22;29267;50.906;7.248;2024-01-15T01:02:20;0.50;99.90
43671;DHT22;29267;50.906;7.248;2024-01-15T01:04:46;0.50;99.90
43671;DHT22;29267;50.906;7.248;2024-01-15T01:07:11;0.50;99.90
43671;DHT22;29267;50.906;7.248;2024-01-15T01:09:37;0.50;99.90
43671;DHT22;29267;50.906;7.248;2024-01-15T01:12:03;0.50;99.90
43671;DHT22;29267;50.906;7.248;2024-01-15T01:14:28;0.50;99.90
43671;DHT22;29267;50.906;7.248;2024-01-15T01:16:54;0.40;99.90
43671;DHT22;29267;50.906;7.248;2024-01-15T01:19:20;0.50;99.90
43671;DHT22;29267;50.906;7.248;2024-01-15T01:21:46;0.50;99.90
43671;DHT22;29267;50.906;7.248;2024-01-15T01:24:11;0.50;99.90
43671;DHT22;29267;50.906;7.248;2024-01-15T01:26:37;0.50;99.90
43671;DHT22;29267;50.906;7.248;2024-01-15T01:29:02;0.50;99.90
43671;DHT22;29267;50.906;7.248;2024-01-15T01:31:28;0.50;99.90
43671;DHT22;29267;50.906;7.248;2024-01-15T01:33:54;0.50;99.90
43671;DHT22;29267;50.906;7.248;2024-01-15T01:36:19;0.50;99.90
43671;DHT22;29267;50.906;7.248;2024-01-15T01:38:45;0.50;99.90
43671;DHT22;29267;50.906;7.248;2024-01-15T01:41:11;0.50;99.90
43671;DHT22;29267;50.906;7.248;2024-01-15T01:43:36;0.50;99.90
43671;DHT22;29267;50.906;7.248;2024-01-15T01:46:03;0.50;99.90
43671;DHT22;29267;50.906;7.248;2024-01-15T01:48:30;0.50;99.90
43671;DHT22;29267;50.906;7.248;2024-01-15T01:50:58;0.50;99.90
43671;DHT22;29267;50.906;7.248;2024-01-15T01:53:25;0.50;99.90
43671;DHT22;29267;50.906;7.248;2024-01-15T01:55:52;0.50;99.90
43671;DHT22;29267;50.906;7.248;2024-01-15T01:58:19;0.50;99.90
43671;DHT22;29267;50.906;7.248;2024-01-15T02:00:46;0.50;99.90
43671;DHT22;29267;50.906;7.248;2024-01-15T02:03:12;0.50;99.90
43671;DHT22;29267;50.906;7.248;2024-01-15T02:05:39;0.60;99.90
43671;DHT22;29267;50.906;7.248;2024-01-15T02:08:05;0.60;99.90
43671;DHT22;29267;50.906;7.248;2024-01-15T02:10:31;0.60;99.90
43671;DHT22;29267;50.906;7.248;2024-01-15T02:12:57;0.50;99.90
43671;DHT22;29267;50.906;7.248;2024-01-15T02:15:23;0.60;99.90
43671;DHT22;29267;50.906;7.248;2024-01-15T02:18:03;0.50;99.90
43671;DHT22;29267;50.906;7.248;2024-01-15T02:20:30;0.50;99.90
43671;DHT22;29267;50.906;7.248;2024-01-15T02:23:22;0.60;99.90
43671;DHT22;29267;50.906;7.248;2024-01-15T02:25:48;0.60;99.90
43671;DHT22;29267;50.906;7.248;2024-01-15T02:28:15;0.60;99.90
43671;DHT22;29267;50.906;7.248;2024-01-15T02:30:42;0.60;99.90
43671;DHT22;29267;50.906;7.248;2024-01-15T02:33:08;0.60;99.90
43671;DHT22;29267;50.906;7.248;2024-01-15T02:35:34;0.60;99.90
43671;DHT22;29267;50.906;7.248;2024-01-15T02:38:02;0.60;99.90
43671;DHT22;29267;50.906;7.248;2024-01-15T02:40:28;0.60;99.90
43671;DHT22;29267;50.906;7.248;2024-01-15T02:42:53;0.60;99.90
43671;DHT22;29267;50.906;7.248;2024-01-15T02:45:19;0.60;99.90
43671;DHT22;29267;50.906;7.248;2024-01-15T02:47:45;0.60;99.90
43671;DHT22;29267;50.906;7.248;2024-01-15T02:50:11;0.60;99.90
43671;DHT22;29267;50.906;7.248;2024-01-15T02:52:37;0.60;99.90
43671;DHT22;29267;50.906;7.248;2024-01-15T02:55:02;0.70;99.90
43671;DHT22;29267;50.906;7.248;2024-01-15T02:57:28;0.70;99.90
43671;DHT22;29267;50.906;7.248;2024-01-15T02:59:54;0.70;99.90
43671;DHT22;29267;50.906;7.248;2024-01-15T03:02:19;0.70;99.90
43671;DHT22;29267;50.906;7.248;2024-01-15T03:04:45;0.70;99.90
43671;DHT22;29267;50.906;7.248;2024-01-15T03:07:11;0.70;99.90
43671;DHT22;29267;50.906;7.248;2024-01-15T03:09:37;0.70;99.90
43671;DHT22;29267;50.906;7.248;2024-01-15T03:12:03;0.70;99.90
43671;DHT22;29267;50.906;7.248;2024-01-15T03:14:28;0.70;99.90
43671;DHT22;29267;50.906;7.248;2024-01-15T03:16:54;0.70;99.90
43671;DHT22;29267;50.906;7.248;2024-01-15T03:19:20;0.70;99.90
43671;DHT22;29267;50.906;7.248;2024-01-15T03:21:45;0.70;99.90
43671;DHT22;29267;50.906;7.248;2024-01-15T03:24:11;0.70;99.90
43671;DHT22;29267;50.906;7.248;2024-01-15T03:26:37;0.70;99.90
43671;DHT22;29267;50.906;7.248;2024-01-15T03:29:02;0.70;99.90
43671;DHT22;29267;50.906;7.248;2024-01-15T03:31:28;0.70;99.90
43671;DHT22;29267;50.906;7.248;2024-01-15T03:33:53;0.70;99.90
43671;DHT22;29267;50.906;7.248;2024-01-15T03:36:19;0.70;99.90
43671;DHT22;29267;50.906;7.248;2024-01-15T03:38:45;0.70;99.90
43671;DHT22;29267;50.906;7.248;2024-01-15T03:41:10;0.70;99.90
43671;DHT22;29267;50.906;7.248;2024-01-15T03:43:36;0.70;99.90
43671;DHT22;29267;50.906;7.248;2024-01-15T03:46:02;0.70;99.90
43671;DHT22;29267;50.906;7.248;2024-01-15T03:48:28;0.70;99.90
43671;DHT22;29267;50.906;7.248;2024-01-15T03:50:53;0.70;99.90
43671;DHT22;29267;50.906;7.248;2024-01-15T03:53:19;0.60;99.90
43671;DHT22;29267;50.906;7.248;2024-01-15T03:55:45;0.70;99.90
43671;DHT22;29267;50.906;7.248;2024-01-15T03:58:10;0.70;99.90
43671;DHT22;29267;50.906;7.248;2024-01-15T04:00:36;0.70;99.90
43671;DHT22;29267;50.906;7.248;2024-01-15T04:03:02;0.70;99.90
43671;DHT22;29267;50.906;7.248;2024-01-15T04:05:27;0.70;99.90
43671;DHT22;29267;50.906;7.248;2024-01-15T04:07:53;0.70;99.90
43671;DHT22;29267;50.906;7.248;2024-01-15T04:10:19;0.70;99.90
43671;DHT22;29267;50.906;7.248;2024-01-15T04:12:44;0.70;99.90
43671;DHT22;29267;50.906;7.248;2024-01-15T04:15:12;0.70;99.90
43671;DHT22;29267;50.906;7.248;2024-01-15T04:17:38;0.70;99.90
43671;DHT22;29267;50.906;7.248;2024-01-15T04:20:04;0.80;99.90
43671;DHT22;29267;50.906;7.248;2024-01-15T04:22:30;0.70;99.90
43671;DHT22;29267;50.906;7.248;2024-01-15T04:24:55;0.70;99.90
43671;DHT22;29267;50.906;7.248;2024-01-15T04:27:21;0.70;99.90
43671;DHT22;29267;50.906;7.248;2024-01-15T04:29:46;0.70;99.90
43671;DHT22;29267;50.906;7.248;2024-01-15T04:32:12;0.80;99.90
43671;DHT22;29267;50.906;7.248;2024-01-15T04:34:38;0.80;99.90
43671;DHT22;29267;50.906;7.248;2024-01-15T04:37:03;0.80;99.90
43671;DHT22;29267;50.906;7.248;2024-01-15T04:39:29;0.80;99.90
43671;DHT22;29267;50.906;7.248;2024-01-15T04:41:55;0.80;99.90
43671;DHT22;29267;50.906;7.248;2024-01-15T04:44:20;0.80;99.90
43671;DHT22;29267;50.906;7.248;2024-01-15T04:46:46;0.80;99.90
43671;DHT22;29267;50.906;7.248;2024-01-15T04:49:12;0.80;99.90
43671;DHT22;29267;50.906;7.248;2024-01-15T04:51:37;0.80;99.90
43671;DHT22;29267;50.906;7.248;2024-01-15T04:54:03;0.80;99.90
43671;DHT22;29267;50.906;7.248;2024-01-15T04:56:29;0.90;99.90
43671;DHT22;29267;50.906;7.248;2024-01-15T04:58:54;0.80;99.90
43671;DHT22;29267;50.906;7.248;2024-01-15T05:01:20;0.80;99.90
43671;DHT22;29267;50.906;7.248;2024-01-15T05:03:46;0.80;99.90
43671;DHT22;29267;50.906;7.248;2024-01-15T05:06:11;0.80;99.90
43671;DHT22;29267;50.906;7.248;2024-01-15T05:08:37;0.80;99.90
43671;DHT22;29267;50.906;7.248;2024-01-15T05:11:02;0.80;99.90
43671;DHT22;29267;50.906;7.248;2024-01-15T05:13:28;0.80;99.90
43671;DHT22;29267;50.906;7.248;2024-01-15T05:15:54;0.80;99.90
43671;DHT22;29267;50.906;7.248;2024-01-15T05:18:19;0.80;99.90
43671;DHT22;29267;50.906;7.248;2024-01-15T05:20:45;0.80;99.90
43671;DHT22;29267;50.906;7.248;2024-01-15T05:23:11;0.80;99.90
43671;DHT22;29267;50.906;7.248;2024-01-15T05:25:36;0.80;99.90
43671;DHT22;29267;50.906;7.248;2024-01-15T05:28:02;0.80;99.90
43671;DHT22;29267;50.906;7.248;2024-01-15T05:30:28;0.90;99.90
43671;DHT22;29267;50.906;7.248;2024-01-15T05:32:54;0.90;99.90
43671;DHT22;29267;50.906;7.248;2024-01-15T05:35:19;0.90;99.90
43671;DHT22;29267;50.906;7.248;2024-01-15T05:37:45;0.90;99.90
43671;DHT22;29267;50.906;7.248;2024-01-15T05:40:12;0.90;99.90
43671;DHT22;29267;50.906;7.248;2024-01-15T05:42:41;0.90;99.90
43671;DHT22;29267;50.906;7.248;2024-01-15T05:45:07;0.90;99.90
43671;DHT22;29267;50.906;7.248;2024-01-15T05:47:33;0.90;99.90
43671;DHT22;29267;50.906;7.248;2024-01-15T05:50:00;0.90;99.90
43671;DHT22;29267;50.906;7.248;2024-01-15T05:52:26;0.90;99.90
43671;DHT22;29267;50.906;7.248;2024-01-15T05:54:53;0.90;99.90
43671;DHT22;29267;50.906;7.248;2024-01-15T05:57:18;0.90;99.90
43671;DHT22;29267;50.906;7.248;2024-01-15T05:59:44;1.00;99.90
43671;DHT22;29267;50.906;7.248;2024-01-15T06:02:10;0.90;99.90
43671;DHT22;29267;50.906;7.248;2024-01-15T06:04:36;1.00;99.90
43671;DHT22;29267;50.906;7.248;2024-01-15T06:07:02;1.00;99.90
43671;DHT22;29267;50.906;7.248;2024-01-15T06:09:27;0.90;99.90
43671;DHT22;29267;50.906;7.248;2024-01-15T06:11:54;0.90;99.90
43671;DHT22;29267;50.906;7.248;2024-01-15T06:14:19;0.90;99.90
43671;DHT22;29267;50.906;7.248;2024-01-15T06:16:45;0.90;99.90
43671;DHT22;29267;50.906;7.248;2024-01-15T06:19:11;0.90;99.90
43671;DHT22;29267;50.906;7.248;2024-01-15T06:21:36;0.90;99.90
43671;DHT22;29267;50.906;7.248;2024-01-15T06:24:02;0.90;99.90
43671;DHT22;29267;50.906;7.248;2024-01-15T06:26:27;0.90;99.90
43671;DHT22;29267;50.906;7.248;2024-01-15T06:28:53;0.90;99.90
43671;DHT22;29267;50.906;7.248;2024-01-15T06:31:19;0.90;99.90
43671;DHT22;29267;50.906;7.248;2024-01-15T06:33:44;0.90;99.90
43671;DHT22;29267;50.906;7.248;2024-01-15T06:36:12;0.90;99.90
43671;DHT22;29267;50.906;7.248;2024-01-15T06:38:38;0.90;99.90
43671;DHT22;29267;50.906;7.248;2024-01-15T06:41:03;0.90;99.90
43671;DHT22;29267;50.906;7.248;2024-01-15T06:43:29;0.90;99.90
43671;DHT22;29267;50.906;7.248;2024-01-15T06:45:55;0.90;99.90
43671;DHT22;29267;50.906;7.248;2024-01-15T06:48:21;0.90;99.90
43671;DHT22;29267;50.906;7.248;2024-01-15T06:50:46;0.90;99.90
43671;DHT22;29267;50.906;7.248;2024-01-15T06:53:12;0.90;99.90
43671;DHT22;29267;50.906;7.248;2024-01-15T06:55:38;0.90;99.90
43671;DHT22;29267;50.906;7.248;2024-01-15T06:58:04;1.00;99.90
43671;DHT22;29267;50.906;7.248;2024-01-15T07:00:30;1.00;99.90
43671;DHT22;29267;50.906;7.248;2024-01-15T07:02:56;1.00;99.90
43671;DHT22;29267;50.906;7.248;2024-01-15T07:05:22;1.00;99.90
43671;DHT22;29267;50.906;7.248;2024-01-15T07:07:48;1.00;99.90
43671;DHT22;29267;50.906;7.248;2024-01-15T07:10:13;1.00;99.90
43671;DHT22;29267;50.906;7.248;2024-01-15T07:12:42;1.00;99.90
43671;DHT22;29267;50.906;7.248;2024-01-15T07:15:08;1.00;99.90
43671;DHT22;29267;50.906;7.248;2024-01-15T07:17:34;1.00;99.90
43671;DHT22;29267;50.906;7.248;2024-01-15T07:20:00;0.90;99.90
43671;DHT22;29267;50.906;7.248;2024-01-15T07:22:25;1.00;99.90
43671;DHT22;29267;50.906;7.248;2024-01-15T07:24:51;1.00;99.90
43671;DHT22;29267;50.906;7.248;2024-01-15T07:27:17;0.90;99.90
43671;DHT22;29267;50.906;7.248;2024-01-15T07:29:42;1.00;99.90
43671;DHT22;29267;50.906;7.248;2024-01-15T07:32:08;1.00;99.90
43671;DHT22;29267;50.906;7.248;2024-01-15T07:34:34;0.90;99.90
43671;DHT22;29267;50.906;7.248;2024-01-15T07:37:00;1.00;99.90
43671;DHT22;29267;50.906;7.248;2024-01-15T07:39:26;1.00;99.90
43671;DHT22;29267;50.906;7.248;2024-01-15T07:41:52;1.00;99.90
43671;DHT22;29267;50.906;7.248;2024-01-15T07:44:18;1.00;99.90
43671;DHT22;29267;50.906;7.248;2024-01-15T07:46:47;1.00;99.90
43671;DHT22;29267;50.906;7.248;2024-01-15T07:49:12;1.00;99.90
43671;DHT22;29267;50.906;7.248;2024-01-15T07:51:38;0.90;99.90
43671;DHT22;29267;50.906;7.248;2024-01-15T07:54:06;1.00;99.90
43671;DHT22;29267;50.906;7.248;2024-01-15T07:56:32;1.00;99.90
43671;DHT22;29267;50.906;7.248;2024-01-15T07:58:58;1.00;99.90
43671;DHT22;29267;50.906;7.248;2024-01-15T08:01:23;1.00;99.90
43671;DHT22;29267;50.906;7.248;2024-01-15T08:03:49;1.00;99.90
43671;DHT22;29267;50.906;7.248;2024-01-15T08:06:15;1.00;99.90
43671;DHT22;29267;50.906;7.248;2024-01-15T08:08:40;1.10;99.90
43671;DHT22;29267;50.906;7.248;2024-01-15T08:11:06;1.10;99.90
43671;DHT22;29267;50.906;7.248;2024-01-15T08:13:32;1.10;99.90
43671;DHT22;29267;50.906;7.248;2024-01-15T08:15:58;1.10;99.90
43671;DHT22;29267;50.906;7.248;2024-01-15T08:18:23;1.10;99.90
43671;DHT22;29267;50.906;7.248;2024-01-15T08:20:49;1.20;99.90
43671;DHT22;29267;50.906;7.248;2024-01-15T08:23:16;1.10;99.90
43671;DHT22;29267;50.906;7.248;2024-01-15T08:25:42;1.10;99.90
43671;DHT22;29267;50.906;7.248;2024-01-15T08:28:08;1.20;99.90
43671;DHT22;29267;50.906;7.248;2024-01-15T08:30:34;1.10;99.90
43671;DHT22;29267;50.906;7.248;2024-01-15T08:33:00;1.20;99.90
43671;DHT22;29267;50.906;7.248;2024-01-15T08:35:25;1.20;99.90
43671;DHT22;29267;50.906;7.248;2024-01-15T08:37:54;1.20;99.90
43671;DHT22;29267;50.906;7.248;2024-01-15T08:40:20;1.20;99.90
43671;DHT22;29267;50.906;7.248;2024-01-15T08:42:46;1.20;99.90
43671;DHT22;29267;50.906;7.248;2024-01-15T08:45:12;1.20;99.90
43671;DHT22;29267;50.906;7.248;2024-01-15T08:47:38;1.30;99.90
43671;DHT22;29267;50.906;7.248;2024-01-15T08:50:04;1.30;99.90
43671;DHT22;29267;50.906;7.248;2024-01-15T08:52:30;1.40;99.90
43671;DHT22;29267;50.906;7.248;2024-01-15T08:54:56;1.40;99.90
43671;DHT22;29267;50.906;7.248;2024-01-15T08:57:22;1.40;99.90
43671;DHT22;29267;50.906;7.248;2024-01-15T08:59:48;1.30;99.90
43671;DHT22;29267;50.906;7.248;2024-01-15T09:02:14;1.30;99.90
43671;DHT22;29267;50.906;7.248;2024-01-15T09:04:40;1.30;99.90
43671;DHT22;29267;50.906;7.248;2024-01-15T09:07:07;1.30;99.90
43671;DHT22;29267;50.906;7.248;2024-01-15T09:09:33;1.30;99.90
43671;DHT22;29267;50.906;7.248;2024-01-15T09:12:00;1.40;99.90
43671;DHT22;29267;50.906;7.248;2024-01-15T09:14:26;1.30;99.90
43671;DHT22;29267;50.906;7.248;2024-01-15T09:16:53;1.40;99.90
43671;DHT22;29267;50.906;7.248;2024-01-15T09:19:19;1.40;99.90
43671;DHT22;29267;50.906;7.248;2024-01-15T09:21:44;1.50;99.90
43671;DHT22;29267;50.906;7.248;2024-01-15T09:24:11;1.40;99.90
43671;DHT22;29267;50.906;7.248;2024-01-15T09:26:36;1.40;99.90
43671;DHT22;29267;50.906;7.248;2024-01-15T09:29:02;1.40;99.90
43671;DHT22;29267;50.906;7.248;2024-01-15T09:31:28;1.30;99.90
43671;DHT22;29267;50.906;7.248;2024-01-15T09:33:54;1.30;99.90
43671;DHT22;29267;50.906;7.248;2024-01-15T09:36:22;1.30;99.90
43671;DHT22;29267;50.906;7.248;2024-01-15T09:38:51;1.40;99.90
43671;DHT22;29267;50.906;7.248;2024-01-15T09:41:16;1.30;99.90
43671;DHT22;29267;50.906;7.248;2024-01-15T09:43:42;1.30;99.90
43671;DHT22;29267;50.906;7.248;2024-01-15T09:46:08;1.30;99.90
43671;DHT22;29267;50.906;7.248;2024-01-15T09:48:35;1.20;99.90
43671;DHT22;29267;50.906;7.248;2024-01-15T09:51:05;1.20;99.90
43671;DHT22;29267;50.906;7.248;2024-01-15T09:53:31;1.20;99.90
43671;DHT22;29267;50.906;7.248;2024-01-15T09:55:58;1.20;99.90
43671;DHT22;29267;50.906;7.248;2024-01-15T09:58:23;1.10;99.90
43671;DHT22;29267;50.906;7.248;2024-01-15T10:00:50;1.10;99.90
43671;DHT22;29267;50.906;7.248;2024-01-15T10:03:16;1.10;99.90
43671;DHT22;29267;50.906;7.248;2024-01-15T10:05:43;1.10;99.90
43671;DHT22;29267;50.906;7.248;2024-01-15T10:08:09;1.10;99.90
43671;DHT22;29267;50.906;7.248;2024-01-15T10:10:36;1.10;99.90
43671;DHT22;29267;50.906;7.248;2024-01-15T10:13:04;1.10;99.90
43671;DHT22;29267;50.906;7.248;2024-01-15T10:15:34;1.10;99.90
43671;DHT22;29267;50.906;7.248;2024-01-15T10:18:00;1.10;99.90
43671;DHT22;29267;50.906;7.248;2024-01-15T10:20:25;1.20;99.90
43671;DHT22;29267;50.906;7.248;2024-01-15T10:22:51;1.20;99.90
43671;DHT22;29267;50.906;7.248;2024-01-15T10:25:17;1.20;99.90
43671;DHT22;29267;50.906;7.248;2024-01-15T10:27:59;1.20;99.90
43671;DHT22;29267;50.906;7.248;2024-01-15T10:30:25;1.20;99.90
43671;DHT22;29267;50.906;7.248;2024-01-15T10:33:03;1.30;99.90
43671;DHT22;29267;50.906;7.248;2024-01-15T10:35:34;1.30;99.90
43671;DHT22;29267;50.906;7.248;2024-01-15T10:38:00;1.40;99.90
43671;DHT22;29267;50.906;7.248;2024-01-15T10:40:27;1.30;99.90
43671;DHT22;29267;50.906;7.248;2024-01-15T10:42:52;1.30;99.90
43671;DHT22;29267;50.906;7.248;2024-01-15T10:45:19;1.30;99.90
43671;DHT22;29267;50.906;7.248;2024-01-15T10:47:44;1.20;99.90
43671;DHT22;29267;50.906;7.248;2024-01-15T10:50:12;1.20;99.90
43671;DHT22;29267;50.906;7.248;2024-01-15T10:52:39;1.20;99.90
43671;DHT22;29267;50.906;7.248;2024-01-15T10:55:09;1.30;99.90
43671;DHT22;29267;50.906;7.248;2024-01-15T10:57:38;1.40;99.90
43671;DHT22;29267;50.906;7.248;2024-01-15T11:00:05;1.40;99.90
43671;DHT22;29267;50.906;7.248;2024-01-15T11:02:36;1.40;99.90
43671;DHT22;29267;50.906;7.248;2024-01-15T11:05:01;1.50;99.90
43671;DHT22;29267;50.906;7.248;2024-01-15T11:07:28;1.50;99.90
43671;DHT22;29267;50.906;7.248;2024-01-15T11:09:55;1.40;99.90
43671;DHT22;29267;50.906;7.248;2024-01-15T11:12:20;1.40;99.90
43671;DHT22;29267;50.906;7.248;2024-01-15T11:14:49;1.50;99.90
43671;DHT22;29267;50.906;7.248;2024-01-15T11:17:16;1.50;99.90
43671;DHT22;29267;50.906;7.248;2024-01-15T11:19:47;1.50;99.90
43671;DHT22;29267;50.906;7.248;2024-01-15T11:24:57;1.60;99.90
43671;DHT22;29267;50.906;7.248;2024-01-15T11:27:47;1.80;99.90
43671;DHT22;29267;50.906;7.248;2024-01-15T11:30:13;1.90;99.90
43671;DHT22;29267;50.906;7.248;2024-01-15T11:32:40;1.90;99.90
43671;DHT22;29267;50.906;7.248;2024-01-15T11:35:09;2.00;99.90
43671;DHT22;29267;50.906;7.248;2024-01-15T11:40:20;1.90;99.90
43671;DHT22;29267;50.906;7.248;2024-01-15T11:42:46;1.90;99.90
43671;DHT22;29267;50.906;7.248;2024-01-15T11:45:15;1.90;99.90
43671;DHT22;29267;50.906;7.248;2024-01-15T11:50:47;2.00;99.90
43671;DHT22;29267;50.906;7.248;2024-01-15T11:55:46;1.80;99.90
43671;DHT22;29267;50.906;7.248;2024-01-15T11:58:14;1.70;99.90
43671;DHT22;29267;50.906;7.248;2024-01-15T12:00:40;1.60;99.90
43671;DHT22;29267;50.906;7.248;2024-01-15T12:03:07;1.60;99.90
43671;DHT22;29267;50.906;7.248;2024-01-15T12:05:37;1.60;99.90
43671;DHT22;29267;50.906;7.248;2024-01-15T12:08:03;1.50;99.90
43671;DHT22;29267;50.906;7.248;2024-01-15T12:10:28;1.50;99.90
43671;DHT22;29267;50.906;7.248;2024-01-15T12:13:04;1.40;99.90
43671;DHT22;29267;50.906;7.248;2024-01-15T12:15:31;1.40;99.90
43671;DHT22;29267;50.906;7.248;2024-01-15T12:17:59;1.40;99.90
43671;DHT22;29267;50.906;7.248;2024-01-15T12:20:26;1.50;99.90
43671;DHT22;29267;50.906;7.248;2024-01-15T12:22:52;1.40;99.90
43671;DHT22;29267;50.906;7.248;2024-01-15T12:25:18;1.40;99.90
43671;DHT22;29267;50.906;7.248;2024-01-15T12:27:44;1.40;99.90
43671;DHT22;29267;50.906;7.248;2024-01-15T12:30:12;1.30;99.90
43671;DHT22;29267;50.906;7.248;2024-01-15T12:32:38;1.30;99.90
43671;DHT22;29267;50.906;7.248;2024-01-15T12:35:03;1.20;99.90
43671;DHT22;29267;50.906;7.248;2024-01-15T12:37:30;1.30;99.90
43671;DHT22;29267;50.906;7.248;2024-01-15T12:39:56;1.30;99.90
43671;DHT22;29267;50.906;7.248;2024-01-15T12:42:21;1.40;99.90
43671;DHT22;29267;50.906;7.248;2024-01-15T12:44:47;1.60;99.90
43671;DHT22;29267;50.906;7.248;2024-01-15T12:47:13;1.80;99.90
43671;DHT22;29267;50.906;7.248;2024-01-15T12:49:40;2.00;99.90
43671;DHT22;29267;50.906;7.248;2024-01-15T12:52:09;2.00;99.90
43671;DHT22;29267;50.906;7.248;2024-01-15T12:54:34;2.10;99.90
43671;DHT22;29267;50.906;7.248;2024-01-15T12:57:00;2.00;99.90
43671;DHT22;29267;50.906;7.248;2024-01-15T12:59:26;2.00;99.90
43671;DHT22;29267;50.906;7.248;2024-01-15T13:01:51;2.00;99.90
43671;DHT22;29267;50.906;7.248;2024-01-15T13:04:24;2.00;99.90
43671;DHT22;29267;50.906;7.248;2024-01-15T13:06:50;2.10;99.90
43671;DHT22;29267;50.906;7.248;2024-01-15T13:09:17;2.00;99.90
43671;DHT22;29267;50.906;7.248;2024-01-15T13:11:44;2.10;99.90
43671;DHT22;29267;50.906;7.248;2024-01-15T13:14:10;2.00;99.90
43671;DHT22;29267;50.906;7.248;2024-01-15T13:16:36;2.00;99.90
43671;DHT22;29267;50.906;7.248;2024-01-15T13:19:01;1.80;99.90
43671;DHT22;29267;50.906;7.248;2024-01-15T13:21:29;1.80;99.90
43671;DHT22;29267;50.906;7.248;2024-01-15T13:23:55;1.70;99.90
43671;DHT22;29267;50.906;7.248;2024-01-15T13:26:21;1.70;99.90
43671;DHT22;29267;50.906;7.248;2024-01-15T13:28:47;1.60;99.90
43671;DHT22;29267;50.906;7.248;2024-01-15T13:31:12;1.60;99.90
43671;DHT22;29267;50.906;7.248;2024-01-15T13:33:38;1.50;99.90
43671;DHT22;29267;50.906;7.248;2024-01-15T13:36:04;1.60;99.90
43671;DHT22;29267;50.906;7.248;2024-01-15T13:38:33;1.50;99.90
43671;DHT22;29267;50.906;7.248;2024-01-15T13:41:02;1.50;99.90
43671;DHT22;29267;50.906;7.248;2024-01-15T13:43:28;1.50;99.90
43671;DHT22;29267;50.906;7.248;2024-01-15T13:45:54;1.60;99.90
43671;DHT22;29267;50.906;7.248;2024-01-15T13:48:20;1.60;99.90
43671;DHT22;29267;50.906;7.248;2024-01-15T13:50:45;1.70;99.90
43671;DHT22;29267;50.906;7.248;2024-01-15T13:53:11;1.70;99.90
43671;DHT22;29267;50.906;7.248;2024-01-15T13:55:37;1.70;99.90
43671;DHT22;29267;50.906;7.248;2024-01-15T13:58:03;1.70;99.90
43671;DHT22;29267;50.906;7.248;2024-01-15T14:00:31;1.70;99.90
43671;DHT22;29267;50.906;7.248;2024-01-15T14:02:57;1.70;99.90
43671;DHT22;29267;50.906;7.248;2024-01-15T14:05:23;1.70;99.90
43671;DHT22;29267;50.906;7.248;2024-01-15T14:07:49;1.70;99.90
43671;DHT22;29267;50.906;7.248;2024-01-15T14:10:14;1.70;99.90
43671;DHT22;29267;50.906;7.248;2024-01-15T14:12:40;1.70;99.90
43671;DHT22;29267;50.906;7.248;2024-01-15T14:15:06;1.60;99.90
43671;DHT22;29267;50.906;7.248;2024-01-15T14:17:32;1.60;99.90
43671;DHT22;29267;50.906;7.248;2024-01-15T14:19:58;1.60;99.90
43671;DHT22;29267;50.906;7.248;2024-01-15T14:22:23;1.60;99.90
43671;DHT22;29267;50.906;7.248;2024-01-15T14:24:49;1.60;99.90
43671;DHT22;29267;50.906;7.248;2024-01-15T14:27:16;1.60;99.90
43671;DHT22;29267;50.906;7.248;2024-01-15T14:29:42;1.50;99.90
43671;DHT22;29267;50.906;7.248;2024-01-15T14:32:07;1.50;99.90
43671;DHT22;29267;50.906;7.248;2024-01-15T14:34:33;1.50;99.90
43671;DHT22;29267;50.906;7.248;2024-01-15T14:37:01;1.40;99.90
43671;DHT22;29267;50.906;7.248;2024-01-15T14:39:27;1.30;99.90
43671;DHT22;29267;50.906;7.248;2024-01-15T14:41:52;1.30;99.90
43671;DHT22;29267;50.906;7.248;2024-01-15T14:44:18;1.30;99.90
43671;DHT22;29267;50.906;7.248;2024-01-15T14:46:44;1.20;99.90
43671;DHT22;29267;50.906;7.248;2024-01-15T14:49:09;1.20;99.90
43671;DHT22;29267;50.906;7.248;2024-01-15T14:51:35;1.20;99.90
43671;DHT22;29267;50.906;7.248;2024-01-15T14:54:03;1.20;99.90
43671;DHT22;29267;50.906;7.248;2024-01-15T14:56:28;1.10;99.90
43671;DHT22;29267;50.906;7.248;2024-01-15T14:58:54;1.10;99.90
43671;DHT22;29267;50.906;7.248;2024-01-15T15:01:20;1.20;99.90
43671;DHT22;29267;50.906;7.248;2024-01-15T15:03:45;1.20;99.90
43671;DHT22;29267;50.906;7.248;2024-01-15T15:06:11;1.20;99.90
43671;DHT22;29267;50.906;7.248;2024-01-15T15:08:37;1.20;99.90
43671;DHT22;29267;50.906;7.248;2024-01-15T15:11:04;1.20;99.90
43671;DHT22;29267;50.906;7.248;2024-01-15T15:13:30;1.20;99.90
43671;DHT22;29267;50.906;7.248;2024-01-15T15:15:55;1.20;99.90
43671;DHT22;29267;50.906;7.248;2024-01-15T15:18:21;1.20;99.90
43671;DHT22;29267;50.906;7.248;2024-01-15T15:20:48;1.20;99.90
43671;DHT22;29267;50.906;7.248;2024-01-15T15:23:15;1.20;99.90
43671;DHT22;29267;50.906;7.248;2024-01-15T15:25:41;1.30;99.90
43671;DHT22;29267;50.906;7.248;2024-01-15T15:28:08;1.20;99.90
43671;DHT22;29267;50.906;7.248;2024-01-15T15:30:35;1.20;99.90
43671;DHT22;29267;50.906;7.248;2024-01-15T15:33:00;1.20;99.90
43671;DHT22;29267;50.906;7.248;2024-01-15T15:35:26;1.20;99.90
43671;DHT22;29267;50.906;7.248;2024-01-15T15:37:52;1.10;99.90
43671;DHT22;29267;50.906;7.248;2024-01-15T15:40:17;1.20;99.90
43671;DHT22;29267;50.906;7.248;2024-01-15T15:42:43;1.10;99.90
43671;DHT22;29267;50.906;7.248;2024-01-15T15:45:09;1.10;99.90
43671;DHT22;29267;50.906;7.248;2024-01-15T15:47:37;1.10;99.90
43671;DHT22;29267;50.906;7.248;2024-01-15T15:50:04;1.10;99.90